createdAt,value
2022-12-18T00:00:50.588Z,8.77
2022-12-18T00:03:18.548Z,8.63
2022-12-18T00:05:50.231Z,11.30
2022-12-18T00:08:18.296Z,12.90
2022-12-18T00:10:46.465Z,11.03
2022-12-18T00:13:14.556Z,8.10
2022-12-18T00:15:43.850Z,10.77
2022-12-18T00:18:13.798Z,8.70
2022-12-18T00:20:43.586Z,6.77
2022-12-18T00:23:11.104Z,9.10
2022-12-18T00:25:38.655Z,9.57
2022-12-18T00:28:06.102Z,8.20
2022-12-18T00:30:33.571Z,11.53
2022-12-18T00:33:02.358Z,13.10
2022-12-18T00:35:29.877Z,14.40
2022-12-18T00:37:57.322Z,15.17
2022-12-18T00:40:24.769Z,10.43
2022-12-18T00:42:57.477Z,12.33
2022-12-18T00:45:26.440Z,9.40
2022-12-18T00:47:54.312Z,10.43
2022-12-18T00:50:24.442Z,9.93
2022-12-18T00:52:52.275Z,15.97
2022-12-18T00:55:20.170Z,10.83
2022-12-18T00:57:48.131Z,12.43
2022-12-18T01:00:17.029Z,8.53
2022-12-18T01:02:44.568Z,8.43
2022-12-18T01:05:13.075Z,8.87
2022-12-18T01:07:42.099Z,8.40
2022-12-18T01:10:11.153Z,10.13
2022-12-18T01:12:39.152Z,9.33
2022-12-18T01:15:07.330Z,11.83
2022-12-18T01:17:35.525Z,7.03
2022-12-18T01:20:03.070Z,10.83
2022-12-18T01:22:30.521Z,11.73
2022-12-18T01:24:59.291Z,9.43
2022-12-18T01:27:26.839Z,10.77
2022-12-18T01:29:54.568Z,11.87
2022-12-18T01:32:22.904Z,10.00
2022-12-18T01:34:51.250Z,10.87
2022-12-18T01:37:18.655Z,7.43
2022-12-18T01:39:46.211Z,7.63
2022-12-18T01:42:16.506Z,11.00
2022-12-18T01:45:01.399Z,1.00
2022-12-18T01:47:31.648Z,6.60
2022-12-18T01:49:59.914Z,9.57
2022-12-18T01:52:28.099Z,10.30
2022-12-18T01:54:56.467Z,16.03
2022-12-18T01:57:25.780Z,9.67
2022-12-18T01:59:54.590Z,6.30
2022-12-18T02:02:22.458Z,9.57
2022-12-18T02:04:50.069Z,8.10
2022-12-18T02:07:21.913Z,4.53
2022-12-18T02:09:54.082Z,7.63
2022-12-18T02:12:23.287Z,6.47
2022-12-18T02:14:57.025Z,8.03
2022-12-18T02:17:27.204Z,9.77
2022-12-18T02:20:01.235Z,7.00
2022-12-18T02:22:36.060Z,6.97
2022-12-18T02:25:08.404Z,7.63
2022-12-18T02:27:39.088Z,10.13
2022-12-18T02:30:07.748Z,5.87
2022-12-18T02:32:36.388Z,7.87
2022-12-18T02:35:07.981Z,12.30
2022-12-18T02:37:37.111Z,9.77
2022-12-18T02:40:07.749Z,7.37
2022-12-18T02:42:39.292Z,6.47
2022-12-18T02:45:08.974Z,8.17
2022-12-18T02:47:39.915Z,7.10
2022-12-18T02:50:11.907Z,7.83
2022-12-18T02:52:43.743Z,6.80
2022-12-18T02:55:21.035Z,7.73
2022-12-18T02:57:57.100Z,8.07
2022-12-18T03:00:31.795Z,7.50
2022-12-18T03:03:02.034Z,6.93
2022-12-18T03:05:32.374Z,5.20
2022-12-18T03:08:02.030Z,4.00
2022-12-18T03:10:34.162Z,6.50
2022-12-18T03:13:07.045Z,9.13
2022-12-18T03:15:39.249Z,6.23
2022-12-18T03:18:14.267Z,7.50
2022-12-18T03:20:42.750Z,7.43
2022-12-18T03:23:11.686Z,8.20
2022-12-18T03:25:41.648Z,5.50
2022-12-18T03:28:12.311Z,6.13
2022-12-18T03:30:41.936Z,5.93
2022-12-18T03:33:10.914Z,6.03
2022-12-18T03:35:42.930Z,4.37
2022-12-18T03:38:12.457Z,4.63
2022-12-18T03:40:47.167Z,6.50
2022-12-18T03:43:20.726Z,9.10
2022-12-18T03:45:52.887Z,4.13
2022-12-18T03:48:22.926Z,3.00
2022-12-18T03:50:53.751Z,6.43
2022-12-18T03:53:27.311Z,4.50
2022-12-18T03:55:55.151Z,3.73
2022-12-18T03:58:25.887Z,4.67
2022-12-18T04:01:02.275Z,3.10
2022-12-18T04:03:30.756Z,3.70
2022-12-18T04:05:59.606Z,4.77
2022-12-18T04:08:28.607Z,7.40
2022-12-18T04:11:03.328Z,5.30
2022-12-18T04:13:34.863Z,5.50
2022-12-18T04:16:04.228Z,6.47
2022-12-18T04:18:31.854Z,3.37
2022-12-18T04:21:00.928Z,3.07
2022-12-18T04:23:29.191Z,3.50
2022-12-18T04:25:59.199Z,4.93
2022-12-18T04:28:46.095Z,4.60
2022-12-18T04:31:14.064Z,6.90
2022-12-18T04:33:42.570Z,5.47
2022-12-18T04:36:10.942Z,4.97
2022-12-18T04:38:38.931Z,4.10
2022-12-18T04:41:10.304Z,4.57
2022-12-18T04:43:38.533Z,8.47
2022-12-18T04:46:08.192Z,3.77
2022-12-18T04:48:36.307Z,2.17
2022-12-18T04:51:03.990Z,8.43
2022-12-18T04:53:31.428Z,6.07
2022-12-18T04:56:08.509Z,5.03
2022-12-18T04:58:36.317Z,3.53
2022-12-18T05:01:04.217Z,2.93
2022-12-18T05:03:33.334Z,4.67
2022-12-18T05:06:01.131Z,5.97
2022-12-18T05:08:28.668Z,7.83
2022-12-18T05:11:00.211Z,2.97
2022-12-18T05:13:27.736Z,2.20
2022-12-18T05:15:55.885Z,4.20
2022-12-18T05:18:23.742Z,3.20
2022-12-18T05:20:52.642Z,7.17
2022-12-18T05:23:20.568Z,5.87
2022-12-18T05:25:48.983Z,2.53
2022-12-18T05:28:16.387Z,3.23
2022-12-18T05:30:44.160Z,4.53
2022-12-18T05:33:11.920Z,2.63
2022-12-18T05:35:39.350Z,4.83
2022-12-18T05:38:08.260Z,3.00
2022-12-18T05:40:35.670Z,4.07
2022-12-18T05:43:03.108Z,4.73
2022-12-18T05:45:30.543Z,7.23
2022-12-18T05:47:58.242Z,4.30
2022-12-18T05:50:25.647Z,3.90
2022-12-18T05:52:53.091Z,4.87
2022-12-18T05:55:21.854Z,2.97
2022-12-18T05:57:49.272Z,2.00
2022-12-18T06:00:17.567Z,4.00
2022-12-18T06:02:48.352Z,4.67
2022-12-18T06:05:16.118Z,8.97
2022-12-18T06:07:43.510Z,3.63
2022-12-18T06:10:11.151Z,3.63
2022-12-18T06:12:39.901Z,5.17
2022-12-18T06:15:08.342Z,2.73
2022-12-18T06:17:36.121Z,1.57
2022-12-18T06:20:03.652Z,2.53
2022-12-18T06:22:33.189Z,3.73
2022-12-18T06:25:01.255Z,2.03
2022-12-18T06:27:29.088Z,2.27
2022-12-18T06:29:57.842Z,3.33
2022-12-18T06:32:25.260Z,4.07
2022-12-18T06:34:52.682Z,4.37
2022-12-18T06:37:20.089Z,5.60
2022-12-18T06:39:47.564Z,4.20
2022-12-18T06:42:14.965Z,2.33
2022-12-18T06:44:42.381Z,3.60
2022-12-18T06:47:11.751Z,4.37
2022-12-18T06:49:39.162Z,6.93
2022-12-18T06:52:06.601Z,3.23
2022-12-18T06:54:34.351Z,3.70
2022-12-18T06:57:01.857Z,5.37
2022-12-18T06:59:29.304Z,6.13
2022-12-18T07:01:57.058Z,7.07
2022-12-18T07:04:28.986Z,6.10
2022-12-18T07:06:56.408Z,4.77
2022-12-18T07:09:24.155Z,5.57
2022-12-18T07:11:52.278Z,6.30
2022-12-18T07:14:19.796Z,5.43
2022-12-18T07:16:47.389Z,9.83
2022-12-18T07:19:15.248Z,11.73
2022-12-18T07:21:43.994Z,17.47
2022-12-18T07:24:11.407Z,11.10
2022-12-18T07:26:39.150Z,9.70
2022-12-18T07:29:06.603Z,13.57
2022-12-18T07:31:34.280Z,14.77
2022-12-18T07:34:01.934Z,10.73
2022-12-18T07:36:29.335Z,11.27
2022-12-18T07:38:58.096Z,8.37
2022-12-18T07:41:25.639Z,11.50
2022-12-18T07:43:53.097Z,8.30
2022-12-18T07:46:20.635Z,8.27
2022-12-18T07:48:49.772Z,10.03
2022-12-18T07:51:18.493Z,7.63
2022-12-18T07:53:46.101Z,9.10
2022-12-18T07:56:31.537Z,4.30
2022-12-18T07:58:59.920Z,8.30
2022-12-18T08:01:27.855Z,8.13
2022-12-18T08:03:55.596Z,5.07
2022-12-18T08:06:24.441Z,8.63
2022-12-18T08:08:52.748Z,7.03
2022-12-18T08:11:21.869Z,6.50
2022-12-18T08:13:49.501Z,4.43
2022-12-18T08:16:18.212Z,7.37
2022-12-18T08:18:45.692Z,7.80
2022-12-18T08:21:14.247Z,9.93
2022-12-18T08:23:43.373Z,10.20
2022-12-18T08:26:11.054Z,6.90
2022-12-18T08:28:39.893Z,6.87
2022-12-18T08:31:07.714Z,10.70
2022-12-18T08:33:35.450Z,9.57
2022-12-18T08:36:03.673Z,10.70
2022-12-18T08:38:31.116Z,13.33
2022-12-18T08:41:00.606Z,13.03
2022-12-18T08:43:48.310Z,16.40
2022-12-18T08:46:17.921Z,10.27
2022-12-18T08:48:45.582Z,10.83
2022-12-18T08:51:13.249Z,11.63
2022-12-18T08:53:41.335Z,5.03
2022-12-18T08:56:09.444Z,9.03
2022-12-18T08:58:36.864Z,15.10
2022-12-18T09:01:05.134Z,11.33
2022-12-18T09:03:34.245Z,11.83
2022-12-18T09:06:01.824Z,11.37
2022-12-18T09:08:29.996Z,10.80
2022-12-18T09:10:58.357Z,9.70
2022-12-18T09:13:26.380Z,7.53
2022-12-18T09:15:55.764Z,9.50
2022-12-18T09:18:24.845Z,8.23
2022-12-18T09:20:54.246Z,11.60
2022-12-18T09:23:22.451Z,11.20
2022-12-18T09:25:50.579Z,11.80
2022-12-18T09:28:19.229Z,9.63
2022-12-18T09:30:48.851Z,6.40
2022-12-18T09:33:16.616Z,11.83
2022-12-18T09:35:45.590Z,9.40
2022-12-18T09:38:18.088Z,13.67
2022-12-18T09:40:47.648Z,9.77
2022-12-18T09:43:18.201Z,11.93
2022-12-18T09:46:02.797Z,10.83
2022-12-18T09:48:33.695Z,11.33
2022-12-18T09:51:04.643Z,8.30
2022-12-18T09:53:36.671Z,11.63
2022-12-18T09:56:05.698Z,14.50
2022-12-18T09:58:35.062Z,15.43
2022-12-18T10:01:02.563Z,13.33
2022-12-18T10:03:30.032Z,9.03
2022-12-18T10:06:02.896Z,14.87
2022-12-18T10:08:35.785Z,14.17
2022-12-18T10:11:13.340Z,13.60
2022-12-18T10:13:44.184Z,15.03
2022-12-18T10:16:14.917Z,12.23
2022-12-18T10:19:01.420Z,17.77
2022-12-18T10:21:32.019Z,15.90
2022-12-18T10:24:03.727Z,14.60
2022-12-18T10:26:33.469Z,15.73
2022-12-18T10:29:05.481Z,16.97
2022-12-18T10:31:33.387Z,15.90
2022-12-18T10:34:00.857Z,14.13
2022-12-18T10:36:28.316Z,13.67
2022-12-18T10:38:56.397Z,10.87
2022-12-18T10:41:29.443Z,13.57
2022-12-18T10:44:14.895Z,18.30
2022-12-18T10:46:42.736Z,20.80
2022-12-18T10:49:20.663Z,50.23
2022-12-18T10:51:48.476Z,31.80
2022-12-18T10:54:17.345Z,22.77
2022-12-18T10:56:45.386Z,14.63
2022-12-18T10:59:15.789Z,13.70
2022-12-18T11:01:52.921Z,15.47
2022-12-18T11:04:21.851Z,11.87
2022-12-18T11:07:00.040Z,13.87
2022-12-18T11:09:28.583Z,13.30
2022-12-18T11:11:57.063Z,11.57
2022-12-18T11:14:26.941Z,22.60
2022-12-18T11:17:24.307Z,39.07
2022-12-18T11:19:43.068Z,31.83
2022-12-18T11:22:21.047Z,35.57
2022-12-18T11:25:29.578Z,31.57
2022-12-18T11:27:42.033Z,14.13
2022-12-18T11:30:12.631Z,14.90
2022-12-18T11:32:41.322Z,18.50
2022-12-18T11:35:14.453Z,15.83
2022-12-18T11:37:44.565Z,19.43
2022-12-18T11:40:15.238Z,20.40
2022-12-18T11:42:46.679Z,29.27
2022-12-18T11:45:28.660Z,20.27
2022-12-18T11:47:58.543Z,12.30
2022-12-18T11:50:26.927Z,9.70
2022-12-18T11:52:58.229Z,8.67
2022-12-18T11:55:33.191Z,5.10
2022-12-18T11:58:05.593Z,5.50
2022-12-18T12:00:37.638Z,9.53
2022-12-18T12:03:27.861Z,6.20
2022-12-18T12:06:03.696Z,5.27
2022-12-18T12:08:34.064Z,5.53
2022-12-18T12:11:05.837Z,4.80
2022-12-18T12:13:38.921Z,4.90
2022-12-18T12:16:13.034Z,7.83
2022-12-18T12:18:45.470Z,7.17
2022-12-18T12:21:19.339Z,6.77
2022-12-18T12:23:50.628Z,6.63
2022-12-18T12:26:21.585Z,6.00
2022-12-18T12:28:53.928Z,3.90
2022-12-18T12:31:28.806Z,6.77
2022-12-18T12:34:01.788Z,6.67
2022-12-18T12:36:34.503Z,8.17
2022-12-18T12:39:03.888Z,5.63
2022-12-18T12:41:51.263Z,8.97
2022-12-18T12:44:21.263Z,4.73
2022-12-18T12:46:50.639Z,7.53
2022-12-18T12:49:20.106Z,3.80
2022-12-18T12:51:48.676Z,6.10
2022-12-18T12:54:18.533Z,7.10
2022-12-18T12:56:51.762Z,6.30
2022-12-18T12:59:24.302Z,6.83
2022-12-18T13:01:56.777Z,4.47
2022-12-18T13:04:28.851Z,8.37
2022-12-18T13:07:00.946Z,5.80
2022-12-18T13:09:31.551Z,6.43
2022-12-18T13:12:21.887Z,10.63
2022-12-18T13:14:49.818Z,7.93
2022-12-18T13:17:33.042Z,8.13
2022-12-18T13:20:10.130Z,6.97
2022-12-18T13:22:38.934Z,10.20
2022-12-18T13:25:21.654Z,7.63
2022-12-18T13:27:58.885Z,10.33
2022-12-18T13:30:41.690Z,11.10
2022-12-18T13:33:28.632Z,7.57
2022-12-18T13:36:03.599Z,6.50
2022-12-18T13:38:36.000Z,10.03
2022-12-18T13:41:04.254Z,8.53
2022-12-18T13:43:34.351Z,6.77
2022-12-18T13:46:03.355Z,7.80
2022-12-18T13:48:32.956Z,5.00
2022-12-18T13:51:04.645Z,9.30
2022-12-18T13:53:35.191Z,4.57
2022-12-18T13:56:03.598Z,5.67
2022-12-18T13:58:31.407Z,6.27
2022-12-18T14:01:00.162Z,6.97
2022-12-18T14:03:28.713Z,8.97
2022-12-18T14:05:58.483Z,8.03
2022-12-18T14:08:29.613Z,7.57
2022-12-18T14:10:57.213Z,7.47
2022-12-18T14:13:26.751Z,9.53
2022-12-18T14:15:54.237Z,8.13
2022-12-18T14:18:23.476Z,6.23
2022-12-18T14:20:53.159Z,11.33
2022-12-18T14:23:35.792Z,6.90
2022-12-18T14:26:06.285Z,9.27
2022-12-18T14:28:34.178Z,9.53
2022-12-18T14:31:01.715Z,10.20
2022-12-18T14:33:29.531Z,11.90
2022-12-18T14:35:58.277Z,9.83
2022-12-18T14:38:27.171Z,5.60
2022-12-18T14:40:56.548Z,6.40
2022-12-18T14:43:23.989Z,6.73
2022-12-18T14:45:52.425Z,9.97
2022-12-18T14:48:23.436Z,10.50
2022-12-18T14:50:58.955Z,10.40
2022-12-18T14:53:30.811Z,8.00
2022-12-18T14:55:59.677Z,17.63
2022-12-18T14:58:27.188Z,10.87
2022-12-18T15:00:56.633Z,10.23
2022-12-18T15:03:24.326Z,7.30
2022-12-18T15:05:52.915Z,9.87
2022-12-18T15:08:30.262Z,10.63
2022-12-18T15:10:58.663Z,11.67
2022-12-18T15:13:27.474Z,10.40
2022-12-18T15:15:55.895Z,8.07
2022-12-18T15:18:32.127Z,10.07
2022-12-18T15:21:00.889Z,6.10
2022-12-18T15:23:30.031Z,4.13
2022-12-18T15:25:58.386Z,7.87
2022-12-18T15:28:28.425Z,13.57
2022-12-18T15:31:03.383Z,5.40
2022-12-18T15:33:32.859Z,5.83
2022-12-18T15:36:00.783Z,4.70
2022-12-18T15:38:28.643Z,5.50
2022-12-18T15:40:56.432Z,6.73
2022-12-18T15:43:37.465Z,11.83
2022-12-18T15:46:07.600Z,16.43
2022-12-18T15:48:35.956Z,7.77
2022-12-18T15:51:03.435Z,9.47
2022-12-18T15:53:32.236Z,7.17
2022-12-18T15:56:17.395Z,7.00
2022-12-18T15:58:45.891Z,10.80
2022-12-18T16:01:14.928Z,9.80
2022-12-18T16:03:42.869Z,8.47
2022-12-18T16:06:11.168Z,8.20
2022-12-18T16:08:38.586Z,17.43
2022-12-18T16:11:07.938Z,11.53
2022-12-18T16:13:35.354Z,11.97
2022-12-18T16:16:02.850Z,12.10
2022-12-18T16:18:31.655Z,9.17
2022-12-18T16:21:00.100Z,6.47
2022-12-18T16:23:28.036Z,7.27
2022-12-18T16:25:55.613Z,8.40
2022-12-18T16:28:23.039Z,5.60
2022-12-18T16:30:50.823Z,8.90
2022-12-18T16:33:18.309Z,16.67
2022-12-18T16:35:52.678Z,9.17
2022-12-18T16:38:20.151Z,9.73
2022-12-18T16:41:01.527Z,8.17
2022-12-18T16:43:29.705Z,5.87
2022-12-18T16:45:59.444Z,6.43
2022-12-18T16:48:27.071Z,6.20
2022-12-18T16:51:01.499Z,4.97
2022-12-18T16:53:28.919Z,4.60
2022-12-18T16:55:56.518Z,5.57
2022-12-18T16:58:24.284Z,7.90
2022-12-18T17:00:51.970Z,7.73
2022-12-18T17:03:19.606Z,8.70
2022-12-18T17:05:52.828Z,7.63
2022-12-18T17:08:21.972Z,12.13
2022-12-18T17:10:49.399Z,6.93
2022-12-18T17:13:20.212Z,6.53
2022-12-18T17:15:51.146Z,6.50
2022-12-18T17:18:18.669Z,8.77
2022-12-18T17:20:46.118Z,6.33
2022-12-18T17:23:13.568Z,7.33
2022-12-18T17:25:42.346Z,7.03
2022-12-18T17:28:09.974Z,5.93
2022-12-18T17:30:37.430Z,8.93
2022-12-18T17:33:05.033Z,8.17
2022-12-18T17:35:32.860Z,7.50
2022-12-18T17:38:00.296Z,8.27
2022-12-18T17:40:27.918Z,7.17
2022-12-18T17:42:56.704Z,4.30
2022-12-18T17:45:24.376Z,8.17
2022-12-18T17:47:56.749Z,5.30
2022-12-18T17:50:27.443Z,3.70
2022-12-18T17:52:56.773Z,4.93
2022-12-18T17:55:24.616Z,5.23
2022-12-18T17:57:52.051Z,3.83
2022-12-18T18:00:21.166Z,6.27
2022-12-18T18:02:48.806Z,4.03
2022-12-18T18:05:16.690Z,5.37
2022-12-18T18:07:45.508Z,4.67
2022-12-18T18:10:13.024Z,3.70
2022-12-18T18:12:58.208Z,10.13
2022-12-18T18:15:27.113Z,8.10
2022-12-18T18:17:54.763Z,8.57
2022-12-18T18:20:22.943Z,7.27
2022-12-18T18:22:50.503Z,7.60
2022-12-18T18:25:18.290Z,10.13
2022-12-18T18:27:46.595Z,8.87
2022-12-18T18:30:15.189Z,12.23
2022-12-18T18:32:44.200Z,14.07
2022-12-18T18:35:19.462Z,17.60
2022-12-18T18:37:58.542Z,27.80
2022-12-18T18:40:26.388Z,17.40
2022-12-18T18:42:58.331Z,8.27
2022-12-18T18:45:26.354Z,8.50
2022-12-18T18:47:55.143Z,5.87
2022-12-18T18:50:22.691Z,7.60
2022-12-18T18:52:50.400Z,5.40
2022-12-18T18:55:24.048Z,9.33
2022-12-18T18:57:53.238Z,13.43
2022-12-18T19:00:20.894Z,13.03
2022-12-18T19:02:49.117Z,12.83
2022-12-18T19:05:18.542Z,10.20
2022-12-18T19:07:45.963Z,8.40
2022-12-18T19:10:13.823Z,4.53
2022-12-18T19:12:58.891Z,8.53
2022-12-18T19:15:26.715Z,5.73
2022-12-18T19:21:50.117Z,3.50
2022-12-18T19:24:17.651Z,3.77
2022-12-18T19:26:45.123Z,4.57
2022-12-18T19:29:14.644Z,2.13
2022-12-18T19:31:42.700Z,3.67
2022-12-18T19:34:10.520Z,4.27
2022-12-18T19:36:39.037Z,3.37
2022-12-18T19:39:11.216Z,3.53
2022-12-18T19:41:40.021Z,5.87
2022-12-18T19:44:08.668Z,4.90
2022-12-18T19:46:39.477Z,3.77
2022-12-18T19:49:10.061Z,2.63
2022-12-18T19:51:37.563Z,4.30
2022-12-18T19:54:05.108Z,3.33
2022-12-18T19:56:35.132Z,3.87
2022-12-18T19:59:03.106Z,3.40
2022-12-18T20:01:30.886Z,4.20
2022-12-18T20:03:59.768Z,1.43
2022-12-18T20:06:30.281Z,1.40
2022-12-18T20:09:00.145Z,2.10
2022-12-18T20:11:28.610Z,1.57
2022-12-18T20:13:57.767Z,2.63
2022-12-18T20:16:25.295Z,2.80
2022-12-18T20:18:53.267Z,3.13
2022-12-18T20:21:21.034Z,2.77
2022-12-18T20:23:48.665Z,2.63
2022-12-18T20:26:16.296Z,3.13
2022-12-18T20:28:43.799Z,1.90
2022-12-18T20:31:14.270Z,1.13
2022-12-18T20:33:42.961Z,3.17
2022-12-18T20:36:14.254Z,2.63
2022-12-18T20:38:43.012Z,2.33
2022-12-18T20:41:12.824Z,3.47
2022-12-18T20:43:40.828Z,2.73
2022-12-18T20:46:09.671Z,1.47
2022-12-18T20:48:38.543Z,2.20
2022-12-18T20:51:07.593Z,1.33
2022-12-18T20:53:36.052Z,1.53
2022-12-18T20:56:06.890Z,3.33
2022-12-18T20:58:34.484Z,3.13
2022-12-18T21:01:06.389Z,2.00
2022-12-18T21:03:37.264Z,2.43
2022-12-18T21:06:06.467Z,1.53
2022-12-18T21:08:34.388Z,3.13
2022-12-18T21:11:33.319Z,3.10
2022-12-18T21:14:00.127Z,2.50
2022-12-18T21:16:27.718Z,1.83
2022-12-18T21:18:56.327Z,3.57
2022-12-18T21:21:26.984Z,2.73
2022-12-18T21:23:54.696Z,2.77
2022-12-18T21:26:23.213Z,3.30
2022-12-18T21:28:54.044Z,3.17
2022-12-18T21:31:22.449Z,2.77
2022-12-18T21:33:50.141Z,2.47
2022-12-18T21:36:19.444Z,1.63
2022-12-18T21:38:48.345Z,2.17
2022-12-18T21:41:41.966Z,3.77
2022-12-18T21:44:11.133Z,3.03
2022-12-18T21:46:39.171Z,3.30
2022-12-18T21:49:07.184Z,3.50
2022-12-18T21:51:34.919Z,3.37
2022-12-18T21:54:04.145Z,3.43
2022-12-18T21:56:43.732Z,3.30
2022-12-18T21:59:11.231Z,1.97
2022-12-18T22:01:38.807Z,2.17
2022-12-18T22:04:06.537Z,3.10
2022-12-18T22:06:34.091Z,2.87
2022-12-18T22:09:01.633Z,2.80
2022-12-18T22:11:30.605Z,2.20
2022-12-18T22:13:58.032Z,3.37
2022-12-18T22:16:25.647Z,2.73
2022-12-18T22:18:53.142Z,3.90
2022-12-18T22:21:28.657Z,3.70
2022-12-18T22:23:57.437Z,3.17
2022-12-18T22:26:25.783Z,3.33
2022-12-18T22:29:12.308Z,7.53
2022-12-18T22:31:39.772Z,3.93
2022-12-18T22:34:07.525Z,3.90
2022-12-18T22:36:36.914Z,3.33
2022-12-18T22:39:04.997Z,3.13
2022-12-18T22:41:32.451Z,2.93
2022-12-18T22:44:01.460Z,3.00
2022-12-18T22:46:30.198Z,3.43
2022-12-18T22:48:58.065Z,2.90
2022-12-18T22:51:25.580Z,3.87
2022-12-18T22:53:53.275Z,4.93
2022-12-18T22:56:22.468Z,3.90
2022-12-18T22:58:50.047Z,4.73
2022-12-18T23:01:21.019Z,2.93
2022-12-18T23:03:48.749Z,5.20
2022-12-18T23:06:16.682Z,4.53
2022-12-18T23:08:44.285Z,4.83
2022-12-18T23:11:12.031Z,4.97
2022-12-18T23:13:40.002Z,5.90
2022-12-18T23:16:08.262Z,3.47
2022-12-18T23:18:37.136Z,3.50
2022-12-18T23:21:06.473Z,5.67
2022-12-18T23:23:35.744Z,5.53
2022-12-18T23:26:04.008Z,7.20
2022-12-18T23:28:32.218Z,5.30
2022-12-18T23:31:06.771Z,4.43
2022-12-18T23:33:34.307Z,4.57
2022-12-18T23:36:03.324Z,3.77
2022-12-18T23:38:31.302Z,5.53
2022-12-18T23:40:59.827Z,5.03
2022-12-18T23:43:27.533Z,4.37
2022-12-18T23:45:55.892Z,5.57
2022-12-18T23:48:23.391Z,4.93
2022-12-18T23:50:50.831Z,5.57
2022-12-18T23:53:19.873Z,6.10
2022-12-18T23:55:47.318Z,8.00
2022-12-18T23:58:16.842Z,5.73
